Time;durP1;ratioP1;P1;durP2;ratioP2;P2;SDS_P1;SDS_P2;PMS_P1;PMS_P2;Temp;Humidity;BMP_temperature;BMP_pressure;BME280_temperature;BME280_humidity;BME280_pressure;Samples;Min_cycle;Max_cycle;Signal;HPM_P1;HPM_P2
2021/07/02 00:00:18;;;;;;;4.32;3.92;;;;;;;16.70;82.24;98786.59;4848268;28;103191;-75
2021/07/02 00:02:46;;;;;;;3.92;3.58;;;;;;;16.80;81.76;98779.38;4859409;28;104396;-75
2021/07/02 00:05:15;;;;;;;5.15;4.45;;;;;;;16.68;81.89;98780.56;4846595;28;103016;-76
2021/07/02 00:07:44;;;;;;;5.20;4.70;;;;;;;16.48;82.80;98770.06;4860347;28;102759;-76
2021/07/02 00:10:13;;;;;;;4.77;4.30;;;;;;;16.60;82.69;98771.63;4858116;28;103047;-75
2021/07/02 00:12:41;;;;;;;3.60;3.30;;;;;;;16.79;81.71;98772.38;4863705;28;103888;-75
2021/07/02 00:15:12;;;;;;;4.10;3.60;;;;;;;16.94;80.75;98769.19;4846535;28;103223;-76
2021/07/02 00:17:40;;;;;;;4.60;4.10;;;;;;;16.80;81.46;98774.06;4849728;28;102914;-75
2021/07/02 00:20:08;;;;;;;4.07;3.70;;;;;;;16.68;82.60;98775.22;4859964;28;104690;-75
2021/07/02 00:22:36;;;;;;;3.90;3.60;;;;;;;16.81;81.85;98764.22;4858220;28;104023;-75
2021/07/02 00:25:08;;;;;;;4.70;4.30;;;;;;;16.74;82.76;98773.78;4864871;28;105373;-75
2021/07/02 00:27:36;;;;;;;4.60;4.20;;;;;;;16.57;84.18;98767.41;4840899;29;103214;-75
2021/07/02 00:30:05;;;;;;;4.10;3.80;;;;;;;16.61;83.71;98768.81;4848897;28;103900;-75
2021/07/02 00:32:33;;;;;;;4.65;4.25;;;;;;;16.61;83.62;98770.63;4850465;28;103658;-76
2021/07/02 00:35:03;;;;;;;5.83;4.70;;;;;;;16.50;84.00;98768.97;4837976;28;102825;-75
2021/07/02 00:37:31;;;;;;;4.50;4.10;;;;;;;16.58;83.65;98763.78;4864216;28;103741;-75
2021/07/02 00:39:58;;;;;;;3.90;3.60;;;;;;;16.75;82.78;98764.81;4845827;28;103328;-75
2021/07/02 00:42:28;;;;;;;4.82;4.38;;;;;;;16.76;82.02;98762.00;4831626;29;104512;-75
2021/07/02 00:44:57;;;;;;;5.28;4.10;;;;;;;16.78;82.00;98765.38;4851770;28;103078;-76
2021/07/02 00:47:25;;;;;;;4.53;4.13;;;;;;;16.81;81.63;98764.22;4839174;28;104166;-75
2021/07/02 00:49:53;;;;;;;4.47;4.07;;;;;;;16.74;81.31;98758.63;4831040;28;106545;-76
2021/07/02 00:52:23;;;;;;;5.23;4.43;;;;;;;16.72;81.58;98755.28;4857398;28;103730;-75
2021/07/02 00:54:53;;;;;;;5.05;4.65;;;;;;;16.43;82.96;98759.84;4835857;28;103079;-75
2021/07/02 00:57:24;;;;;;;4.93;4.47;;;;;;;16.43;83.15;98753.69;4849707;28;103498;-75
2021/07/02 00:59:54;;;;;;;5.75;5.20;;;;;;;15.88;85.29;98748.25;4832322;28;103289;-76
2021/07/02 01:02:23;;;;;;;5.68;5.18;;;;;;;16.00;84.86;98755.06;4838839;28;107830;-75
2021/07/02 01:04:53;;;;;;;5.47;4.97;;;;;;;15.98;84.85;98753.53;4850729;28;104191;-75
2021/07/02 01:07:21;;;;;;;5.90;5.30;;;;;;;16.05;84.23;98749.31;4843271;28;103214;-74
2021/07/02 01:09:49;;;;;;;5.85;4.95;;;;;;;16.12;83.90;98753.06;4842489;28;104447;-76
2021/07/02 01:12:18;;;;;;;5.18;4.68;;;;;;;16.32;83.18;98757.38;4838054;29;104263;-76
2021/07/02 01:14:48;;;;;;;5.40;4.60;;;;;;;16.41;82.77;98755.66;4842538;28;102909;-75
2021/07/02 01:17:19;;;;;;;5.57;4.10;;;;;;;16.34;83.29;98744.72;4842556;28;102800;-75
2021/07/02 01:19:49;;;;;;;4.83;4.43;;;;;;;16.35;83.11;98750.91;4844379;28;104606;-76
2021/07/02 01:22:25;;;;;;;5.05;4.60;;;;;;;16.29;83.37;98752.31;4834751;28;103805;-76
2021/07/02 01:24:57;;;;;;;4.15;3.75;;;;;;;16.42;82.85;98750.16;4835136;29;103233;-75
2021/07/02 01:27:27;;;;;;;4.25;3.88;;;;;;;16.45;82.99;98757.88;4832061;28;103000;-75
2021/07/02 01:29:58;;;;;;;4.78;4.38;;;;;;;16.47;82.77;98747.94;4862946;28;103978;-75
2021/07/02 01:32:27;;;;;;;5.22;4.72;;;;;;;16.29;84.02;98755.00;4836818;29;104590;-75
2021/07/02 01:34:55;;;;;;;6.32;5.03;;;;;;;16.12;84.85;98750.41;4837413;28;102587;-75
2021/07/02 01:37:25;;;;;;;4.57;4.17;;;;;;;16.25;84.25;98754.44;4834945;29;103194;-76
2021/07/02 01:39:55;;;;;;;4.47;4.07;;;;;;;16.42;82.85;98752.84;4846395;28;104756;-75
2021/07/02 01:42:26;;;;;;;4.75;4.32;;;;;;;16.45;82.39;98752.53;4838668;29;103859;-76
2021/07/02 01:44:54;;;;;;;4.32;4.03;;;;;;;16.36;83.06;98764.09;4827721;28;103184;-76
2021/07/02 01:47:23;;;;;;;4.95;4.45;;;;;;;16.38;82.24;98762.13;4844331;28;103046;-76
2021/07/02 01:49:52;;;;;;;6.13;5.20;;;;;;;16.36;82.57;98755.25;4839865;28;104571;-75
2021/07/02 01:52:25;;;;;;;4.90;4.50;;;;;;;16.28;83.09;98761.31;4834792;29;106573;-75
2021/07/02 01:54:53;;;;;;;4.63;4.22;;;;;;;16.31;83.19;98754.88;4848057;28;102982;-75
2021/07/02 01:57:24;;;;;;;5.80;5.20;;;;;;;15.97;84.04;98758.00;4863239;28;103184;-75
2021/07/02 01:59:54;;;;;;;5.90;5.30;;;;;;;15.94;84.51;98762.81;4834335;28;103290;-75
2021/07/02 02:02:23;;;;;;;5.38;4.88;;;;;;;16.11;83.47;98757.56;4825021;28;110063;-75
2021/07/02 02:04:58;;;;;;;5.23;4.73;;;;;;;16.20;82.92;98761.19;4836521;28;103531;-76
2021/07/02 02:07:27;;;;;;;5.78;5.00;;;;;;;16.08;83.13;98757.03;4842852;28;103245;-75
2021/07/02 02:09:55;;;;;;;5.07;4.68;;;;;;;16.16;83.38;98755.34;4858532;28;103868;-75
2021/07/02 02:12:24;;;;;;;5.32;4.93;;;;;;;16.08;83.23;98759.69;4863790;28;103316;-75
2021/07/02 02:14:53;;;;;;;5.63;5.13;;;;;;;15.74;84.95;98751.34;4839594;29;103204;-75
2021/07/02 02:17:23;;;;;;;5.15;4.65;;;;;;;15.84;83.95;98752.16;4832607;28;102873;-75
2021/07/02 02:19:53;;;;;;;5.90;5.40;;;;;;;15.59;85.23;98750.94;4852290;28;104398;-75
2021/07/02 02:22:22;;;;;;;5.28;4.82;;;;;;;15.56;86.40;98753.88;4859100;28;103764;-75
2021/07/02 02:24:52;;;;;;;5.55;4.90;;;;;;;15.73;85.11;98748.81;4863701;28;103119;-75
2021/07/02 02:27:21;;;;;;;4.97;4.57;;;;;;;15.88;83.97;98750.06;4834819;28;102679;-76
2021/07/02 02:29:50;;;;;;;5.18;4.68;;;;;;;15.88;83.11;98755.38;4846860;28;103868;-76
2021/07/02 02:32:18;;;;;;;5.07;4.67;;;;;;;15.88;83.03;98747.38;4851536;28;104632;-75
2021/07/02 02:34:47;;;;;;;6.13;5.60;;;;;;;15.77;82.83;98760.88;4833210;29;103192;-75
2021/07/02 02:37:15;;;;;;;5.13;4.72;;;;;;;15.59;84.61;98758.91;4853773;28;103049;-75
2021/07/02 02:39:43;;;;;;;6.50;5.82;;;;;;;15.39;85.02;98746.53;4851130;28;103997;-75
2021/07/02 02:42:13;;;;;;;5.50;5.00;;;;;;;15.39;85.75;98751.03;4840812;28;103152;-75
2021/07/02 02:44:42;;;;;;;5.30;4.80;;;;;;;15.47;84.81;98749.38;4858870;28;103163;-75
2021/07/02 02:47:10;;;;;;;5.50;5.00;;;;;;;15.41;85.10;98755.22;4855897;28;103016;-75
2021/07/02 02:49:38;;;;;;;5.43;4.93;;;;;;;15.53;84.51;98748.81;4835872;28;104392;-75
2021/07/02 02:52:08;;;;;;;4.50;4.10;;;;;;;15.09;86.22;98754.66;4857804;28;105317;-75
2021/07/02 02:54:35;;;;;;;5.20;4.53;;;;;;;14.64;88.48;98748.09;4853048;28;103058;-75
2021/07/02 02:57:07;;;;;;;6.00;4.50;;;;;;;14.43;89.90;98748.13;4848576;28;103430;-75
2021/07/02 02:59:44;;;;;;;5.77;5.17;;;;;;;14.32;90.19;98748.22;4835156;28;103986;-75
2021/07/02 03:02:17;;;;;;;5.00;4.53;;;;;;;14.17;91.02;98752.19;4824036;29;103931;-75
2021/07/02 03:04:48;;;;;;;7.03;5.33;;;;;;;13.93;92.38;98755.13;4826320;29;103364;-75
2021/07/02 03:07:16;;;;;;;7.22;6.47;;;;;;;14.12;91.83;98752.56;4853212;28;102954;-77
2021/07/02 03:09:44;;;;;;;6.03;5.53;;;;;;;14.47;90.62;98750.41;4827602;29;106370;-77
2021/07/02 03:12:13;;;;;;;5.97;5.47;;;;;;;14.43;90.20;98749.00;4853905;28;103340;-77
2021/07/02 03:14:44;;;;;;;5.75;5.15;;;;;;;14.68;88.78;98754.84;4839936;29;103014;-77
2021/07/02 03:17:12;;;;;;;5.88;5.38;;;;;;;14.70;87.73;98758.19;4844878;28;103027;-77
2021/07/02 03:19:43;;;;;;;5.90;5.32;;;;;;;14.67;88.28;98758.47;4830242;28;104040;-77
2021/07/02 03:22:12;;;;;;;5.27;4.77;;;;;;;14.77;88.02;98761.97;4847587;28;103431;-78
2021/07/02 03:24:42;;;;;;;6.40;5.80;;;;;;;14.73;87.14;98760.59;4867424;28;103205;-77
2021/07/02 03:27:10;;;;;;;5.77;5.27;;;;;;;14.65;87.76;98755.09;4850567;28;103778;-78
2021/07/02 03:29:50;;;;;;;5.60;5.10;;;;;;;14.81;86.98;98752.75;4851029;28;104348;-78
2021/07/02 03:32:19;;;;;;;6.28;5.78;;;;;;;14.77;86.81;98764.63;4855034;28;103096;-77
2021/07/02 03:34:53;;;;;;;5.88;5.38;;;;;;;14.87;86.11;98761.06;4833519;29;104621;-77
2021/07/02 03:37:26;;;;;;;5.57;5.07;;;;;;;14.95;86.27;98765.69;4857687;28;103131;-78
2021/07/02 03:39:55;;;;;;;7.00;5.68;;;;;;;14.95;86.39;98768.34;4864090;28;104026;-78
2021/07/02 03:42:23;;;;;;;6.75;6.15;;;;;;;15.09;85.92;98770.63;4866952;28;103641;-78
2021/07/02 03:44:53;;;;;;;6.53;5.93;;;;;;;15.01;86.71;98771.31;4855846;28;102537;-79
2021/07/02 03:47:22;;;;;;;5.57;5.07;;;;;;;15.14;86.55;98773.69;4856777;28;102980;-78
2021/07/02 03:49:52;;;;;;;6.78;6.13;;;;;;;14.92;87.60;98773.94;4867690;28;103855;-79
2021/07/02 03:52:23;;;;;;;6.60;6.00;;;;;;;14.99;87.76;98772.41;4851275;29;105446;-77
2021/07/02 03:54:54;;;;;;;5.80;5.30;;;;;;;14.97;88.38;98774.34;4848493;28;102826;-77
2021/07/02 03:57:22;;;;;;;5.00;4.60;;;;;;;15.20;87.13;98778.47;4861109;28;102728;-78
2021/07/02 03:59:53;;;;;;;6.88;5.97;;;;;;;15.21;85.79;98784.63;4851636;28;103890;-78
2021/07/02 04:02:21;;;;;;;8.63;7.75;;;;;;;14.45;90.54;98786.94;4855984;28;103888;-77
2021/07/02 04:04:49;;;;;;;6.23;5.63;;;;;;;14.43;92.13;98775.56;4838292;28;103013;-78
2021/07/02 04:07:24;;;;;;;7.10;5.90;;;;;;;14.39;92.12;98782.13;4862997;28;103031;-76
2021/07/02 04:09:52;;;;;;;6.57;5.97;;;;;;;14.78;90.90;98777.81;4847861;28;104415;-77
2021/07/02 04:12:20;;;;;;;6.65;6.05;;;;;;;15.06;88.33;98776.19;4865378;28;103693;-77
2021/07/02 04:14:48;;;;;;;6.50;6.00;;;;;;;15.19;87.19;98776.78;4863642;28;103034;-77
2021/07/02 04:17:17;;;;;;;7.93;7.20;;;;;;;15.18;87.25;98775.13;4844396;28;103168;-77
2021/07/02 04:19:46;;;;;;;6.03;5.53;;;;;;;15.43;86.80;98771.91;4851774;28;103841;-77
2021/07/02 04:22:14;;;;;;;5.70;5.20;;;;;;;15.68;85.62;98783.00;4862624;28;111070;-76
2021/07/02 04:24:42;;;;;;;7.03;6.32;;;;;;;15.59;85.36;98780.22;4859307;28;103006;-76
2021/07/02 04:27:15;;;;;;;6.38;5.78;;;;;;;15.73;86.12;98786.09;4860219;28;103166;-76
2021/07/02 04:29:44;;;;;;;5.07;4.68;;;;;;;15.94;84.82;98792.13;4865574;28;104442;-76
2021/07/02 04:32:12;;;;;;;5.63;5.13;;;;;;;16.06;84.04;98798.94;4856328;28;103403;-75
2021/07/02 04:34:41;;;;;;;5.55;5.05;;;;;;;16.18;83.70;98789.81;4853845;28;102955;-77
2021/07/02 04:37:10;;;;;;;6.10;5.60;;;;;;;16.11;84.42;98791.41;4832074;28;103215;-77
2021/07/02 04:39:38;;;;;;;5.20;4.70;;;;;;;16.29;84.47;98794.97;4853952;28;105224;-79
2021/07/02 04:42:07;;;;;;;6.35;5.68;;;;;;;16.40;83.82;98786.81;4851046;28;103046;-77
2021/07/02 04:44:35;;;;;;;5.40;4.90;;;;;;;16.55;83.20;98784.56;4841203;28;103022;-77
2021/07/02 04:47:04;;;;;;;5.18;4.78;;;;;;;16.68;82.64;98791.22;4849529;28;106071;-77
2021/07/02 04:49:33;;;;;;;5.22;4.82;;;;;;;16.72;81.76;98787.28;4833934;28;104957;-77
2021/07/02 04:52:02;;;;;;;7.03;6.43;;;;;;;16.57;81.29;98788.75;4845916;28;104913;-77
2021/07/02 04:54:30;;;;;;;5.33;4.83;;;;;;;16.79;82.19;98793.72;4833544;28;103280;-77
2021/07/02 04:57:00;;;;;;;4.83;4.43;;;;;;;17.01;81.50;98791.66;4857067;28;103074;-77
2021/07/02 04:59:30;;;;;;;4.65;4.25;;;;;;;17.12;80.74;98784.25;4844654;28;103809;-77
2021/07/02 05:01:58;;;;;;;5.72;5.22;;;;;;;17.21;79.93;98793.19;4850371;28;103647;-78
2021/07/02 05:04:26;;;;;;;5.95;5.45;;;;;;;17.34;79.36;98793.69;4839144;28;103212;-78
2021/07/02 05:06:55;;;;;;;6.00;5.50;;;;;;;17.37;79.03;98799.53;4841306;28;103508;-77
2021/07/02 05:09:25;;;;;;;6.30;5.80;;;;;;;17.23;79.96;98796.56;4847319;28;103556;-77
2021/07/02 05:11:53;;;;;;;6.13;5.53;;;;;;;17.44;78.53;98789.09;4851459;28;104210;-79
2021/07/02 05:14:21;;;;;;;5.78;5.28;;;;;;;17.57;78.12;98789.59;4827391;28;103218;-77
2021/07/02 05:16:49;;;;;;;6.13;5.53;;;;;;;17.48;77.69;98795.84;4846791;28;103225;-77
2021/07/02 05:19:17;;;;;;;5.30;4.90;;;;;;;17.66;78.57;98791.34;4844099;28;103808;-76
2021/07/02 05:21:45;;;;;;;5.88;5.38;;;;;;;17.76;77.56;98800.16;4855590;28;111070;-79
2021/07/02 05:24:15;;;;;;;6.05;5.55;;;;;;;17.83;77.58;98795.84;4850604;28;102561;-79
2021/07/02 05:26:44;;;;;;;6.32;5.82;;;;;;;17.78;77.29;98802.66;5094460;23;103204;-77
2021/07/02 05:29:12;;;;;;;6.85;6.25;;;;;;;17.66;77.52;98799.38;4827823;29;104493;-76
2021/07/02 05:31:40;;;;;;;7.63;6.82;;;;;;;17.61;77.55;98798.16;4834914;29;104780;-76
2021/07/02 05:34:10;;;;;;;6.40;5.80;;;;;;;17.88;77.45;98798.91;4823201;29;102991;-76
2021/07/02 05:36:38;;;;;;;6.85;6.25;;;;;;;17.76;76.37;98800.16;4823818;29;103074;-76
2021/07/02 05:39:06;;;;;;;7.40;6.30;;;;;;;17.79;76.55;98804.34;4817849;29;105839;-76
2021/07/02 05:41:34;;;;;;;7.03;6.43;;;;;;;17.60;77.34;98808.00;4829810;29;104505;-76
2021/07/02 05:44:05;;;;;;;7.75;6.80;;;;;;;17.55;76.71;98807.63;4838694;29;103082;-76
2021/07/02 05:46:33;;;;;;;6.60;6.00;;;;;;;17.77;75.61;98806.31;4821543;29;103213;-75
2021/07/02 05:49:02;;;;;;;7.10;6.38;;;;;;;17.74;75.39;98803.97;4835088;29;103360;-75
2021/07/02 05:51:30;;;;;;;6.35;5.85;;;;;;;17.90;75.12;98802.28;4838772;29;104517;-75
2021/07/02 05:53:59;;;;;;;6.10;5.50;;;;;;;17.92;75.22;98805.63;4833854;29;103090;-75
2021/07/02 05:56:28;;;;;;;5.82;5.30;;;;;;;18.15;74.70;98802.47;4826992;29;103061;-76
2021/07/02 05:58:57;;;;;;;7.03;6.33;;;;;;;17.94;74.56;98806.31;4832472;29;103417;-76
2021/07/02 06:01:27;;;;;;;6.05;5.55;;;;;;;18.09;74.22;98797.72;4816120;29;103806;-78
2021/07/02 06:03:56;;;;;;;6.72;6.10;;;;;;;18.24;74.13;98809.56;4836102;29;102915;-75
2021/07/02 06:06:24;;;;;;;7.50;6.60;;;;;;;18.11;73.44;98811.78;4813804;29;103957;-75
2021/07/02 06:08:53;;;;;;;6.30;5.80;;;;;;;18.37;73.35;98810.81;4845118;28;104385;-75
2021/07/02 06:11:21;;;;;;;7.70;6.90;;;;;;;18.33;73.26;98808.63;4833881;29;103737;-75
2021/07/02 06:13:49;;;;;;;6.40;5.90;;;;;;;18.24;73.80;98809.56;4831341;29;103133;-75
2021/07/02 06:16:18;;;;;;;7.30;6.60;;;;;;;18.29;72.93;98817.94;4831970;29;102919;-77
2021/07/02 06:18:47;;;;;;;7.32;6.32;;;;;;;18.49;72.80;98814.09;4831195;29;106892;-75
2021/07/02 06:21:15;;;;;;;6.55;5.95;;;;;;;18.62;72.27;98814.50;4850136;29;104963;-75
2021/07/02 06:23:43;;;;;;;7.15;6.45;;;;;;;18.93;71.78;98817.50;4836149;29;103266;-75
2021/07/02 06:26:12;;;;;;;7.10;6.38;;;;;;;19.02;70.41;98822.75;4839881;29;102982;-75
2021/07/02 06:28:40;;;;;;;6.85;6.20;;;;;;;19.00;71.03;98830.06;4823959;29;104461;-75
2021/07/02 06:31:08;;;;;;;6.80;6.20;;;;;;;19.00;70.40;98822.03;4818276;29;103839;-75
2021/07/02 06:33:36;;;;;;;7.68;6.63;;;;;;;18.88;70.13;98820.66;4822927;29;103195;-76
2021/07/02 06:36:06;;;;;;;6.47;5.88;;;;;;;19.18;70.21;98821.09;4809311;29;106398;-76
2021/07/02 06:38:34;;;;;;;7.63;6.60;;;;;;;18.93;70.68;98818.34;4791861;29;105659;-75
2021/07/02 06:41:04;;;;;;;6.60;6.00;;;;;;;19.27;70.75;98825.50;4818920;29;103700;-76
2021/07/02 06:43:32;;;;;;;6.55;5.85;;;;;;;19.43;69.76;98831.78;4819180;29;102929;-75
2021/07/02 06:46:01;;;;;;;6.10;5.45;;;;;;;19.65;68.28;98825.78;4822752;29;105949;-77
2021/07/02 06:48:29;;;;;;;5.47;4.90;;;;;;;19.96;67.44;98828.66;4820005;29;103421;-76
2021/07/02 06:50:57;;;;;;;6.57;5.97;;;;;;;19.92;68.65;98832.72;4812978;29;103313;-76
2021/07/02 06:53:27;;;;;;;6.75;6.05;;;;;;;19.76;67.76;98827.31;4812270;29;103235;-75
2021/07/02 06:55:55;;;;;;;6.75;6.10;;;;;;;19.97;67.74;98826.84;4825311;29;102893;-76
2021/07/02 06:58:24;;;;;;;7.20;5.40;;;;;;;20.19;65.88;98832.38;4801531;29;103851;-76
2021/07/02 07:00:52;;;;;;;6.78;5.78;;;;;;;20.03;66.35;98827.00;4824162;29;103788;-75
2021/07/02 07:03:20;;;;;;;6.65;6.05;;;;;;;20.34;66.13;98831.72;4821406;29;103084;-77
2021/07/02 07:05:49;;;;;;;6.25;5.65;;;;;;;20.43;64.29;98831.56;4778802;29;103152;-75
2021/07/02 07:08:17;;;;;;;5.45;4.95;;;;;;;20.51;64.00;98844.13;4800478;29;104720;-76
2021/07/02 07:10:47;;;;;;;5.70;5.20;;;;;;;20.37;64.08;98836.75;4825546;29;103696;-76
2021/07/02 07:13:15;;;;;;;6.68;4.90;;;;;;;20.16;64.87;98840.75;4823954;29;102639;-75
2021/07/02 07:15:48;;;;;;;4.70;4.20;;;;;;;20.42;64.29;98837.91;4814772;29;103057;-76
2021/07/02 07:18:16;;;;;;;5.75;5.20;;;;;;;20.30;65.13;98841.94;4813013;29;103969;-76
2021/07/02 07:20:45;;;;;;;4.82;4.43;;;;;;;20.22;63.39;98840.09;4827076;29;104262;-76
2021/07/02 07:23:13;;;;;;;5.18;4.68;;;;;;;20.42;64.30;98840.59;4820071;29;103030;-76
2021/07/02 07:25:41;;;;;;;5.22;4.25;;;;;;;20.59;64.11;98846.78;4810792;29;102778;-76
2021/07/02 07:28:11;;;;;;;6.05;4.88;;;;;;;20.56;61.63;98847.13;4810193;29;103825;-78
2021/07/02 07:30:39;;;;;;;4.32;3.92;;;;;;;20.74;62.51;98845.91;4827250;29;105267;-76
2021/07/02 07:33:08;;;;;;;5.85;4.88;;;;;;;20.41;60.88;98844.28;4828735;29;103185;-76
2021/07/02 07:35:38;;;;;;;4.80;4.15;;;;;;;20.40;63.55;98847.16;4813863;29;103379;-77
2021/07/02 07:38:06;;;;;;;4.90;3.92;;;;;;;20.51;63.73;98842.28;4809951;29;110095;-76
2021/07/02 07:40:35;;;;;;;4.68;4.15;;;;;;;20.08;62.28;98848.78;4812055;29;103686;-77
2021/07/02 07:43:03;;;;;;;4.97;4.38;;;;;;;21.01;61.22;98846.50;4814005;29;102939;-76
2021/07/02 07:45:33;;;;;;;4.18;3.78;;;;;;;21.33;60.14;98841.84;4817373;29;102932;-76
2021/07/02 07:48:01;;;;;;;4.88;4.47;;;;;;;21.55;58.23;98844.78;4805514;29;103954;-76
2021/07/02 07:50:33;;;;;;;4.72;4.32;;;;;;;20.84;59.33;98845.72;4817513;29;104452;-75
2021/07/02 07:53:01;;;;;;;3.85;3.40;;;;;;;21.36;58.97;98846.88;4825154;29;103061;-76
2021/07/02 07:55:31;;;;;;;4.85;4.40;;;;;;;21.53;58.91;98846.81;4820033;29;102828;-76
2021/07/02 07:57:59;;;;;;;5.28;4.07;;;;;;;21.04;59.68;98847.00;4809297;29;104316;-76
2021/07/02 08:00:28;;;;;;;5.78;4.40;;;;;;;21.38;58.17;98852.94;4808817;29;104838;-76
2021/07/02 08:02:59;;;;;;;5.43;4.05;;;;;;;21.43;58.86;98855.09;4809471;29;102668;-75
2021/07/02 08:05:28;;;;;;;4.68;3.75;;;;;;;22.00;57.43;98861.00;4808521;29;103128;-76
2021/07/02 08:07:56;;;;;;;5.07;3.63;;;;;;;22.41;55.83;98856.97;4809862;29;110801;-76
2021/07/02 08:10:26;;;;;;;4.35;3.85;;;;;;;21.13;57.96;98858.59;4808049;29;103192;-76
2021/07/02 08:12:54;;;;;;;5.28;4.47;;;;;;;22.15;54.00;98867.25;4813915;29;104528;-77
2021/07/02 08:15:22;;;;;;;4.50;4.10;;;;;;;22.10;53.89;98861.59;4809161;29;103090;-79
2021/07/02 08:17:50;;;;;;;4.82;4.35;;;;;;;22.78;53.24;98856.13;4801199;29;107852;-76
2021/07/02 08:20:20;;;;;;;5.20;4.40;;;;;;;23.00;51.56;98851.66;4808526;29;103745;-76
2021/07/02 08:22:48;;;;;;;5.07;4.10;;;;;;;23.30;53.69;98858.72;4800705;29;103083;-76
2021/07/02 08:25:16;;;;;;;6.68;4.85;;;;;;;24.15;50.06;98845.41;4825563;29;103589;-75
2021/07/02 08:30:30;;;;;;;5.40;4.82;;;;;;;21.25;55.37;98859.88;4813770;29;106045;-77
2021/07/02 08:32:58;;;;;;;4.93;4.53;;;;;;;21.75;54.87;98862.16;4795960;29;104779;-75
2021/07/02 08:35:27;;;;;;;7.13;4.75;;;;;;;22.53;54.46;98868.13;4800465;29;103153;-78
2021/07/02 08:37:57;;;;;;;4.20;3.83;;;;;;;23.85;50.08;98860.03;4819833;29;104987;-79
2021/07/02 08:40:25;;;;;;;5.20;4.70;;;;;;;24.06;49.13;98860.03;4807618;29;106117;-75
2021/07/02 08:42:54;;;;;;;4.80;4.38;;;;;;;24.50;48.89;98860.69;4805365;29;103145;-76
2021/07/02 08:45:22;;;;;;;6.22;4.68;;;;;;;23.58;51.13;98858.88;4818776;29;103504;-77
2021/07/02 08:47:52;;;;;;;6.18;5.13;;;;;;;24.43;49.49;98864.34;4803423;29;103761;-75
2021/07/02 08:50:22;;;;;;;5.30;4.90;;;;;;;23.33;50.55;98861.03;4822003;29;103842;-75
2021/07/02 08:52:52;;;;;;;5.15;4.47;;;;;;;23.36;50.82;98866.06;4821595;29;103142;-79
2021/07/02 08:55:20;;;;;;;5.43;4.90;;;;;;;22.45;52.59;98877.13;4820230;29;102865;-79
2021/07/02 08:57:48;;;;;;;6.43;5.75;;;;;;;22.72;53.89;98873.00;4826227;29;103905;-75
2021/07/02 09:00:17;;;;;;;5.65;5.15;;;;;;;22.83;55.19;98871.72;4815753;29;103717;-77
2021/07/02 09:02:45;;;;;;;6.72;5.50;;;;;;;22.23;54.13;98877.94;4816623;29;103150;-75
2021/07/02 09:05:35;;;;;;;5.50;5.00;;;;;;;23.03;52.82;98870.16;4817056;29;103342;-76
2021/07/02 09:08:14;;;;;;;6.20;4.32;;;;;;;24.46;50.58;98869.38;4826070;29;103961;-78
2021/07/02 09:10:47;;;;;;;4.80;4.40;;;;;;;25.12;48.50;98859.91;4817033;29;103726;-76
2021/07/02 09:13:16;;;;;;;6.57;5.22;;;;;;;23.68;50.27;98875.63;4807094;29;103150;-77
2021/07/02 09:15:46;;;;;;;6.43;5.60;;;;;;;23.12;51.04;98885.22;4808097;29;103317;-77
2021/07/02 09:18:15;;;;;;;6.18;5.55;;;;;;;21.59;55.26;98892.63;4807405;29;106529;-76
2021/07/02 09:20:45;;;;;;;5.53;5.03;;;;;;;22.51;53.63;98887.13;4814219;29;103615;-77
2021/07/02 09:23:17;;;;;;;6.38;5.78;;;;;;;23.81;51.60;98880.31;4810873;29;103059;-86
2021/07/02 09:25:51;;;;;;;5.93;5.15;;;;;;;23.83;51.55;98879.09;4803529;29;102719;-76
2021/07/02 09:28:29;;;;;;;5.38;4.93;;;;;;;24.59;49.28;98875.72;4817691;29;103363;-79
2021/07/02 09:30:58;;;;;;;5.22;4.72;;;;;;;23.81;50.02;98881.16;4806972;29;104942;-75
2021/07/02 09:33:28;;;;;;;4.68;4.28;;;;;;;25.33;45.34;98881.44;4809429;29;103016;-76
2021/07/02 09:35:58;;;;;;;6.47;4.63;;;;;;;24.97;47.83;98878.09;4798491;29;103397;-75
2021/07/02 09:38:36;;;;;;;5.55;5.05;;;;;;;24.89;47.83;98884.50;4807243;29;111991;-76
2021/07/02 09:41:05;;;;;;;5.43;5.03;;;;;;;25.37;48.33;98880.00;4815928;29;103737;-79
2021/07/02 09:43:34;;;;;;;5.90;5.18;;;;;;;25.15;48.55;98881.94;4814358;29;102621;-79
2021/07/02 09:46:04;;;;;;;5.20;4.78;;;;;;;25.00;47.18;98885.81;4791968;29;104686;-75
2021/07/02 09:48:34;;;;;;;6.25;5.70;;;;;;;24.18;48.40;98888.22;4809377;29;104565;-74
2021/07/02 09:51:05;;;;;;;6.05;5.15;;;;;;;24.30;48.42;98891.25;4809080;29;103619;-74
2021/07/02 09:53:36;;;;;;;6.03;5.53;;;;;;;23.40;51.51;98894.34;4813504;29;102952;-74
2021/07/02 09:56:07;;;;;;;5.78;5.30;;;;;;;24.47;47.87;98881.84;4809680;29;103126;-76
2021/07/02 09:58:37;;;;;;;7.15;4.78;;;;;;;25.15;47.60;98881.94;4812777;29;103899;-77
2021/07/02 10:01:06;;;;;;;4.95;4.55;;;;;;;25.92;47.76;98882.53;4812997;29;103676;-75
2021/07/02 10:03:36;;;;;;;7.50;5.50;;;;;;;24.15;49.65;98892.13;4812866;29;103244;-73
2021/07/02 10:06:06;;;;;;;6.07;5.47;;;;;;;24.03;50.03;98900.88;4809406;29;105198;-76
2021/07/02 10:08:37;;;;;;;6.22;5.70;;;;;;;24.44;49.66;98893.03;4821031;29;103922;-77
2021/07/02 10:11:07;;;;;;;6.50;5.90;;;;;;;24.24;44.97;98887.44;4812083;29;103818;-76
2021/07/02 10:13:38;;;;;;;6.23;5.27;;;;;;;25.67;46.46;98881.41;4804550;29;103651;-76
2021/07/02 10:16:08;;;;;;;5.90;5.40;;;;;;;25.91;45.04;98882.72;4808147;29;105339;-75
2021/07/02 10:18:39;;;;;;;8.07;5.30;;;;;;;26.23;44.55;98883.88;4804066;29;104013;-78
2021/07/02 10:21:07;;;;;;;5.93;5.40;;;;;;;24.75;43.12;98880.84;4811593;29;105428;-76
2021/07/02 10:23:42;;;;;;;4.95;4.43;;;;;;;25.25;43.02;98881.59;4804082;29;103223;-78
2021/07/02 10:26:13;;;;;;;4.97;4.57;;;;;;;24.47;42.59;98885.38;4806424;29;103217;-77
2021/07/02 10:28:43;;;;;;;5.03;4.63;;;;;;;24.17;45.52;98887.38;4805593;29;103986;-79
2021/07/02 10:31:12;;;;;;;5.65;5.05;;;;;;;24.66;45.29;98886.56;4812960;29;104233;-78
2021/07/02 10:33:43;;;;;;;5.70;5.10;;;;;;;26.20;42.84;98887.00;4796317;29;103909;-76
2021/07/02 10:36:14;;;;;;;6.05;5.47;;;;;;;23.58;45.70;98878.59;4815176;29;102647;-79
2021/07/02 10:38:46;;;;;;;6.17;5.47;;;;;;;24.81;46.67;98881.13;4824375;29;103993;-80
2021/07/02 10:41:16;;;;;;;5.18;4.75;;;;;;;24.54;47.35;98878.16;4796628;29;104371;-81
2021/07/02 10:44:04;;;;;;;6.80;5.40;;;;;;;26.11;44.87;98886.31;4818327;29;103231;-82
2021/07/02 10:46:33;;;;;;;5.78;5.10;;;;;;;26.07;40.38;98881.53;4820171;29;103059;-79
2021/07/02 10:49:04;;;;;;;6.20;5.07;;;;;;;25.96;44.93;98888.38;4816030;29;103960;-82
2021/07/02 10:51:47;;;;;;;5.68;5.03;;;;;;;26.61;41.68;98884.13;4821054;29;104868;-85
2021/07/02 10:54:47;;;;;;;6.10;5.50;;;;;;;25.40;44.52;98886.88;4808060;29;102926;-79
2021/07/02 10:57:21;;;;;;;6.15;5.55;;;;;;;24.53;43.42;98879.22;4828993;29;103184;-78
2021/07/02 11:00:09;;;;;;;5.57;5.00;;;;;;;25.36;43.88;98884.56;4812952;29;110858;-76
2021/07/02 11:02:38;;;;;;;6.20;5.60;;;;;;;25.01;42.69;98891.00;4818565;29;103916;-80
2021/07/02 11:05:30;;;;;;;6.00;5.43;;;;;;;25.23;43.59;98878.28;4818141;29;103159;-83
2021/07/02 11:07:59;;;;;;;5.93;5.22;;;;;;;24.97;45.49;98884.34;4825573;29;102849;-83
2021/07/02 11:10:43;;;;;;;5.72;5.22;;;;;;;23.77;45.07;98892.53;4821239;29;104198;-82
2021/07/02 11:13:14;;;;;;;6.10;5.50;;;;;;;23.91;46.07;98884.38;4800358;29;105071;-84
2021/07/02 11:16:04;;;;;;;5.68;5.20;;;;;;;24.71;45.86;98881.41;4808850;29;108196;-83
2021/07/02 11:18:40;;;;;;;5.65;5.20;;;;;;;25.16;44.33;98891.75;4807396;29;103928;-83
2021/07/02 11:21:19;;;;;;;4.93;4.53;;;;;;;26.14;40.94;98883.22;4823557;29;103499;-81
2021/07/02 11:23:48;;;;;;;5.40;4.90;;;;;;;26.11;41.55;98882.78;4845522;29;105283;-78
2021/07/02 11:26:44;;;;;;;5.93;5.43;;;;;;;25.38;42.82;98884.38;4806057;29;103463;-74
2021/07/02 11:29:12;;;;;;;7.13;5.20;;;;;;;25.17;43.16;98877.19;4828358;29;103832;-74
2021/07/02 11:31:43;;;;;;;5.73;5.23;;;;;;;25.85;44.78;98878.97;4819094;29;105074;-76
2021/07/02 11:34:17;;;;;;;5.45;4.95;;;;;;;26.13;43.28;98884.25;4809206;29;104467;-75
2021/07/02 11:37:14;;;;;;;5.97;5.47;;;;;;;26.18;43.71;98881.81;4811242;29;102954;-75
2021/07/02 11:39:53;;;;;;;6.55;5.50;;;;;;;25.54;44.38;98891.34;4822326;29;106473;-77